createdAt,value
2023-01-10T00:00:15.900Z,104435.28
2023-01-10T00:05:38.104Z,104449.28
2023-01-10T00:11:19.031Z,104442.34
2023-01-10T00:16:40.797Z,104444.88
2023-01-10T00:22:06.046Z,104445.03
2023-01-10T00:27:27.235Z,104429.22
2023-01-10T00:32:48.589Z,104433.69
2023-01-10T00:38:10.630Z,104433.06
2023-01-10T00:43:51.399Z,104434.19
2023-01-10T00:49:15.384Z,104433.00
2023-01-10T00:54:36.561Z,104435.19
2023-01-10T00:59:58.250Z,104435.72
2023-01-10T01:05:19.872Z,104446.38
2023-01-10T01:10:41.107Z,104449.75
2023-01-10T01:16:02.523Z,104437.44
2023-01-10T01:21:28.242Z,104442.84
2023-01-10T01:26:49.274Z,104443.56
2023-01-10T01:32:10.627Z,104450.78
2023-01-10T01:37:31.923Z,104456.66
2023-01-10T01:42:56.099Z,104457.34
2023-01-10T01:53:41.983Z,104463.75
2023-01-10T02:04:21.901Z,104471.53
2023-01-10T02:10:06.655Z,104476.03
2023-01-10T02:15:28.048Z,104483.63
2023-01-10T02:21:31.429Z,104496.88
2023-01-10T02:38:10.856Z,104500.22
2023-01-10T02:43:37.758Z,104509.13
2023-01-10T02:48:59.013Z,104506.31
2023-01-10T02:54:26.639Z,104512.09
2023-01-10T03:10:19.601Z,104537.97
2023-01-10T03:15:42.482Z,104536.84
2023-01-10T03:21:06.577Z,104537.16
2023-01-10T03:26:37.761Z,104544.59
2023-01-10T03:32:05.773Z,104557.94
2023-01-10T03:37:37.040Z,104559.09
2023-01-10T03:48:14.939Z,104577.88
2023-01-10T03:53:38.523Z,104566.84
2023-01-10T03:58:59.836Z,104572.13
2023-01-10T04:04:21.883Z,104578.38
2023-01-10T04:09:42.973Z,104593.84
2023-01-10T04:15:04.751Z,104599.22
2023-01-10T04:20:27.406Z,104606.03
2023-01-10T04:25:48.472Z,104641.84
2023-01-10T04:31:09.915Z,104635.13
2023-01-10T04:36:31.342Z,104625.75
2023-01-10T04:41:52.234Z,104624.75
2023-01-10T04:47:13.246Z,104636.34
2023-01-10T04:52:34.340Z,104642.31
2023-01-10T04:57:55.919Z,104645.25
2023-01-10T05:03:20.417Z,104656.25
2023-01-10T05:08:41.377Z,104670.16
2023-01-10T05:14:02.783Z,104679.16
2023-01-10T05:19:23.838Z,104691.63
2023-01-10T05:24:44.763Z,104700.84
2023-01-10T05:30:06.201Z,104709.25
2023-01-10T05:35:37.417Z,104717.41
2023-01-10T05:41:44.680Z,104721.53
2023-01-10T05:47:06.019Z,104729.03
2023-01-10T05:52:27.372Z,104726.03
2023-01-10T05:57:48.802Z,104723.63
2023-01-10T06:03:10.209Z,104731.41
2023-01-10T06:08:31.344Z,104731.50
2023-01-10T06:13:55.904Z,104754.56
2023-01-10T06:19:17.219Z,104753.56
2023-01-10T06:24:38.390Z,104757.72
2023-01-10T06:30:01.524Z,104768.38
2023-01-10T06:35:22.849Z,104777.09
2023-01-10T06:40:43.971Z,104771.78
2023-01-10T06:46:10.418Z,104774.25
2023-01-10T06:51:44.641Z,104767.34
2023-01-10T06:57:06.016Z,104761.13
2023-01-10T07:02:27.569Z,104773.47
2023-01-10T07:07:49.062Z,104782.75
2023-01-10T07:13:10.479Z,104780.25
2023-01-10T07:18:34.624Z,104786.38
2023-01-10T07:24:09.245Z,104792.06
2023-01-10T07:29:31.016Z,104791.88
2023-01-10T07:34:53.045Z,104787.69
2023-01-10T07:40:14.464Z,104801.88
2023-01-10T07:45:36.346Z,104786.69
2023-01-10T07:50:59.498Z,104800.28
2023-01-10T07:56:21.086Z,104807.06
2023-01-10T08:01:46.322Z,104808.44
2023-01-10T08:07:11.052Z,104816.50
2023-01-10T08:12:32.942Z,104817.97
2023-01-10T08:17:54.291Z,104808.69
2023-01-10T08:23:15.421Z,104804.88
2023-01-10T08:28:36.704Z,104789.47
2023-01-10T08:33:57.954Z,104796.84
2023-01-10T08:39:20.805Z,104792.59
2023-01-10T08:44:42.047Z,104792.25
2023-01-10T08:50:03.492Z,104789.97
2023-01-10T08:55:24.558Z,104803.88
2023-01-10T09:00:46.176Z,104799.34
2023-01-10T09:06:08.501Z,104797.84
2023-01-10T09:11:30.297Z,104797.19
2023-01-10T09:16:52.534Z,104784.38
2023-01-10T09:22:13.811Z,104782.81
2023-01-10T09:27:35.089Z,104777.91
2023-01-10T09:32:57.426Z,104767.53
2023-01-10T09:38:19.479Z,104758.47
2023-01-10T09:54:29.481Z,104766.50
2023-01-10T10:01:05.764Z,104760.41
2023-01-10T10:06:26.764Z,104754.97
2023-01-10T10:17:30.295Z,104751.81
2023-01-10T10:38:44.322Z,104767.66
2023-01-10T10:54:43.449Z,104781.69
2023-01-10T11:00:06.039Z,104766.28
2023-01-10T11:05:46.747Z,104763.22
2023-01-10T11:16:31.820Z,104776.50
2023-01-10T11:27:16.543Z,104772.94
2023-01-10T11:32:40.973Z,104767.19
2023-01-10T11:38:05.971Z,104763.16
2023-01-10T11:54:02.878Z,104784.81
2023-01-10T11:59:25.902Z,104796.75
2023-01-10T12:04:49.827Z,104809.78
2023-01-10T12:10:21.648Z,104825.38
2023-01-10T12:15:43.071Z,104813.50
2023-01-10T12:21:05.129Z,104818.13
2023-01-10T12:26:30.239Z,104813.50
2023-01-10T12:31:55.010Z,104816.06
2023-01-10T12:42:56.625Z,104827.94
2023-01-10T12:53:55.441Z,104825.78
2023-01-10T12:59:36.646Z,104831.97
2023-01-10T13:05:03.360Z,104829.94
2023-01-10T13:10:26.377Z,104832.78
2023-01-10T13:15:55.656Z,104810.72
2023-01-10T13:21:19.505Z,104825.00
2023-01-10T13:32:02.888Z,104840.94
2023-01-10T13:37:30.624Z,104837.28
2023-01-10T13:48:39.064Z,104835.03
2023-01-10T13:54:02.553Z,104844.16
2023-01-10T14:04:39.984Z,104853.75
2023-01-10T14:10:06.832Z,104862.09
2023-01-10T14:20:39.801Z,104876.09
2023-01-10T14:26:02.141Z,104862.06
2023-01-10T14:31:25.776Z,104878.91
2023-01-10T14:36:55.976Z,104881.72
2023-01-10T14:42:18.389Z,104862.97
2023-01-10T14:47:39.421Z,104885.53
2023-01-10T14:53:00.869Z,104873.66
2023-01-10T14:58:23.227Z,104888.38
2023-01-10T15:03:46.664Z,104890.00
2023-01-10T15:09:14.879Z,104889.78
2023-01-10T15:14:37.785Z,104890.28
2023-01-10T15:19:59.227Z,104900.81
2023-01-10T15:30:38.465Z,104912.88
2023-01-10T15:36:12.689Z,104910.34
2023-01-10T15:41:35.728Z,104915.03
2023-01-10T15:46:57.745Z,104916.31
2023-01-10T15:52:22.634Z,104920.91
2023-01-10T15:57:43.879Z,104933.72
2023-01-10T16:03:19.294Z,104942.78
2023-01-10T16:08:40.799Z,104944.00
2023-01-10T16:14:03.053Z,104946.94
2023-01-10T16:19:24.533Z,104956.00
2023-01-10T16:24:47.602Z,104952.09
2023-01-10T16:30:23.471Z,104952.00
2023-01-10T16:35:47.152Z,104966.50
2023-01-10T16:41:31.446Z,104962.38
2023-01-10T16:46:53.687Z,104960.00
2023-01-10T16:52:14.958Z,104972.00
2023-01-10T16:57:37.012Z,104978.25
2023-01-10T17:02:59.416Z,104980.47
2023-01-10T17:08:23.504Z,104983.41
2023-01-10T17:13:46.375Z,104978.31
2023-01-10T17:19:08.731Z,104976.69
2023-01-10T17:24:30.125Z,104981.53
2023-01-10T17:29:51.637Z,104982.53
2023-01-10T17:35:12.690Z,104980.47
2023-01-10T17:40:34.457Z,104963.59
2023-01-10T17:45:58.838Z,104974.22
2023-01-10T17:51:20.127Z,104984.25
2023-01-10T17:56:42.075Z,104980.94
2023-01-10T18:02:03.675Z,104982.09
2023-01-10T18:07:26.085Z,104988.44
2023-01-10T18:12:47.377Z,104987.72
2023-01-10T18:18:08.839Z,104983.97
2023-01-10T18:23:31.921Z,104987.50
2023-01-10T18:28:53.074Z,104987.44
2023-01-10T18:34:14.320Z,104990.22
2023-01-10T18:39:35.317Z,104996.31
2023-01-10T18:44:56.895Z,105009.91
2023-01-10T18:50:19.139Z,105011.41
2023-01-10T18:55:40.161Z,105016.56
2023-01-10T19:01:14.475Z,105017.34
2023-01-10T19:06:35.894Z,105014.91
2023-01-10T19:11:58.598Z,105015.69
2023-01-10T19:17:19.890Z,105005.34
2023-01-10T19:22:41.120Z,105008.66
2023-01-10T19:28:03.206Z,105014.34
2023-01-10T19:33:24.529Z,105020.06
2023-01-10T19:38:46.020Z,105021.69
2023-01-10T19:44:11.593Z,105014.56
2023-01-10T19:49:36.324Z,105024.09
2023-01-10T19:54:57.473Z,105028.44
2023-01-10T20:00:18.883Z,105035.25
2023-01-10T20:05:39.907Z,105048.25
2023-01-10T20:11:05.628Z,105048.44
2023-01-10T20:16:27.393Z,105054.91
2023-01-10T20:21:48.777Z,105045.19
2023-01-10T20:27:09.929Z,105049.00
2023-01-10T20:32:31.144Z,105056.28
2023-01-10T20:37:52.579Z,105054.94
2023-01-10T20:43:15.009Z,105050.41
2023-01-10T20:48:36.081Z,105045.56
2023-01-10T20:53:57.343Z,105058.69
2023-01-10T20:59:18.570Z,105070.31
2023-01-10T21:04:40.049Z,105060.31
2023-01-10T21:10:03.251Z,105063.75
2023-01-10T21:15:24.662Z,105052.78
2023-01-10T21:20:47.440Z,105069.06
2023-01-10T21:26:11.221Z,105072.44
2023-01-10T21:31:32.549Z,105052.09
2023-01-10T21:36:54.473Z,105048.16
2023-01-10T21:42:36.573Z,105049.44
2023-01-10T21:47:57.590Z,105055.66
2023-01-10T21:53:19.856Z,105048.81
2023-01-10T21:58:41.177Z,105055.09
2023-01-10T22:04:02.508Z,105046.78
2023-01-10T22:09:25.249Z,105041.81
2023-01-10T22:14:47.239Z,105040.31
2023-01-10T22:20:09.163Z,105026.63
2023-01-10T22:25:30.668Z,105031.34
2023-01-10T22:30:51.977Z,105035.06
2023-01-10T22:36:16.648Z,105032.94
2023-01-10T22:41:39.108Z,105037.16
2023-01-10T22:47:00.510Z,105032.19
2023-01-10T22:52:21.541Z,105041.09
2023-01-10T22:57:47.248Z,105029.63
2023-01-10T23:03:09.683Z,105033.41
2023-01-10T23:08:31.596Z,105044.69
2023-01-10T23:13:52.986Z,105045.34
2023-01-10T23:19:14.123Z,105050.84
2023-01-10T23:24:35.473Z,105059.59
2023-01-10T23:29:56.591Z,105057.06
2023-01-10T23:35:17.639Z,105051.66
2023-01-10T23:40:38.707Z,105064.44
2023-01-10T23:46:00.664Z,105060.66
2023-01-10T23:51:21.645Z,105058.28
2023-01-10T23:56:42.602Z,105066.75
